MMMZ/MZT METAR and TAF weather

Enter ICAO airport designator
Station Type Date Time Source
MMMZ METAR 2019/08/17 11:40 UTC NOAA

MMMZ 171140Z 00000KT 10SM FEW020 BKN080 BKN230 27/27 A2988 RMK SLP111 52003 959 8/432 RTS


Station Type Date Time Source
MMMZ Decoded METAR 2019/08/17 11:40 UTC NOAA

Station name not available
Aug 17, 2019 - 07:40 AM EDT / 2019.08.17 1140 UTC
Wind: Calm:0
Visibility: 10 mile(s):0
Sky conditions: mostly cloudy
Temperature: 80 F (27 C)
Dew Point: 80 F (27 C)
Relative Humidity: 100%
Pressure (altimeter): 29.88 in. Hg (1011 hPa)
Pressure tendency: 0.01 inches (0.3 hPa) higher than three hours ago
ob: MMMZ 171140Z 00000KT 10SM FEW020 BKN080 BKN230 27/27 A2988 RMK SLP111 52003 959 8/432 RTS
cycle: 11

Station Type Date Time Source
MMMZ TAF 2019/08/17 12:41 UTC NOAA

TAF MMMZ 171034Z 1712/1818 12005KT P6SM SCT080 BKN230 TX33/1720Z TN26/1712Z
FM171800 24010KT P6SM SCT020 BKN230
TEMPO 1723/1803 5SM TSRA BKN020CB
FM180600 00000KT P6SM SCT020 SCT100 BKN230
FM181800 23010KT P6SM SCT020 SCT230

Example: see airport list